首页
METAR-TAF:

METAR-TAF

机场 :

Abraham Lincoln Capital Airport

斯普林菲尔德, 伊利诺伊州, 美国

纬度: 39-50-43N, 经度: 089-41-02W, 海拔: 182米

当前天气观测

该预报发布于32分钟前的03:52 UTC
风速10节,风向,有时为19节阵风
温度 28°C
湿度 58%
气压 1011 hPa
能見度: 16.1公里
天空无云

METAR: KSPI 250352Z AUTO 17010G19KT 10SM CLR 28/19 A2985 RMK AO2 SLP103 T02780189 $

时间: 23:24 (04:24 UTC)

预报

该预报发布于1小时和11分钟前的03:13 UTC
预报有效从25日的 03点(UTC)到 25日的 24点(UTC)
风速13节,风向,有时为23节阵风
能見度: 10公里
天空无云
从 25日的 0800点(UTC)
风速11节,风向南转西南
能見度: 10公里
散云层高于12000英尺
多云层高于25000英尺
从 25日的 1400点(UTC)
风速14节,风向西转西南,有时为20节阵风
能見度: 10公里
多云层高于8000英尺
几率 30%
从 25日的 15点(UTC)到 25日的 18点(UTC)
能見度: 4.8公里
多云层高于2500英尺, 积雨云.
雷暴, 小雨
从 25日的 2300点(UTC)
风速9节,风向西
能見度: 10公里
散云层高于23000英尺

TAF: KSPI 250313Z 2503/2524 17013G23KT P6SM SKC FM250800 20011KT P6SM SCT120 BKN250 FM251400 24014G20KT P6SM BKN080 PROB30 2515/2518 3SM -TSRA BKN025CB FM252300 26009KT P6SM SCT230

超过4000个机场的气象观测和天气预报(METAR&TAF报告)。

可查询的气象台以黄色和红色小点在地图上表示。

将鼠标移到小点上方,可查看气象台名称。

然后点击查看天气观测和预报。

如需切换地图:点击带黑十字的绿色按钮放大地图;点击带横线的绿色按钮缩小地图;或者点击绿色箭头查看邻近地区的地图。


METAR-TAF: